sensor_id;sensor_type;location;lat;lon;timestamp;P1;durP1;ratioP1;P2;durP2;ratioP2
27740;SDS011;15134;48.768;9.184;2023-08-12T00:00:23;1102.35;;;997.88;;
27740;SDS011;15134;48.768;9.184;2023-08-12T00:02:49;1090.68;;;986.85;;
27740;SDS011;15134;48.768;9.184;2023-08-12T00:05:14;1097.05;;;992.97;;
27740;SDS011;15134;48.768;9.184;2023-08-12T00:07:40;1097.72;;;993.75;;
27740;SDS011;15134;48.768;9.184;2023-08-12T00:10:11;1090.68;;;986.78;;
27740;SDS011;15134;48.768;9.184;2023-08-12T00:12:38;1089.73;;;986.20;;
27740;SDS011;15134;48.768;9.184;2023-08-12T00:15:05;1095.75;;;991.60;;
27740;SDS011;15134;48.768;9.184;2023-08-12T00:17:33;1095.90;;;991.55;;
27740;SDS011;15134;48.768;9.184;2023-08-12T00:20:00;1093.22;;;989.28;;
27740;SDS011;15134;48.768;9.184;2023-08-12T00:22:25;1094.07;;;990.27;;
27740;SDS011;15134;48.768;9.184;2023-08-12T00:24:54;1095.60;;;991.67;;
27740;SDS011;15134;48.768;9.184;2023-08-12T00:27:20;1094.35;;;990.47;;
27740;SDS011;15134;48.768;9.184;2023-08-12T00:29:46;1093.53;;;989.63;;
27740;SDS011;15134;48.768;9.184;2023-08-12T00:32:13;1088.47;;;984.88;;
27740;SDS011;15134;48.768;9.184;2023-08-12T00:34:39;1091.78;;;988.03;;
27740;SDS011;15134;48.768;9.184;2023-08-12T00:37:04;1090.53;;;987.05;;
27740;SDS011;15134;48.768;9.184;2023-08-12T00:39:30;1089.25;;;985.65;;
27740;SDS011;15134;48.768;9.184;2023-08-12T00:41:56;1094.93;;;991.22;;
27740;SDS011;15134;48.768;9.184;2023-08-12T00:44:21;1095.10;;;991.27;;
27740;SDS011;15134;48.768;9.184;2023-08-12T00:46:47;1093.50;;;989.72;;
27740;SDS011;15134;48.768;9.184;2023-08-12T00:49:13;1090.55;;;986.92;;
27740;SDS011;15134;48.768;9.184;2023-08-12T00:51:41;1092.63;;;988.60;;
27740;SDS011;15134;48.768;9.184;2023-08-12T00:54:13;1083.53;;;980.23;;
27740;SDS011;15134;48.768;9.184;2023-08-12T00:56:48;1085.63;;;982.30;;
27740;SDS011;15134;48.768;9.184;2023-08-12T00:59:18;1085.82;;;982.30;;
27740;SDS011;15134;48.768;9.184;2023-08-12T01:01:48;1080.93;;;977.63;;
27740;SDS011;15134;48.768;9.184;2023-08-12T01:04:20;1087.82;;;984.13;;
27740;SDS011;15134;48.768;9.184;2023-08-12T01:06:48;1084.38;;;981.08;;
27740;SDS011;15134;48.768;9.184;2023-08-12T01:09:14;1088.13;;;984.42;;
27740;SDS011;15134;48.768;9.184;2023-08-12T01:17:38;1083.75;;;980.28;;
27740;SDS011;15134;48.768;9.184;2023-08-12T01:20:07;1078.45;;;975.38;;
27740;SDS011;15134;48.768;9.184;2023-08-12T01:22:39;1080.85;;;977.55;;
27740;SDS011;15134;48.768;9.184;2023-08-12T01:25:06;1080.90;;;977.50;;
27740;SDS011;15134;48.768;9.184;2023-08-12T01:27:36;1081.13;;;977.75;;
27740;SDS011;15134;48.768;9.184;2023-08-12T01:30:02;1075.57;;;972.47;;
27740;SDS011;15134;48.768;9.184;2023-08-12T01:32:37;1080.10;;;976.90;;
27740;SDS011;15134;48.768;9.184;2023-08-12T01:35:33;1080.57;;;977.35;;
27740;SDS011;15134;48.768;9.184;2023-08-12T01:38:04;1078.60;;;975.45;;
27740;SDS011;15134;48.768;9.184;2023-08-12T01:40:32;1077.38;;;974.35;;
27740;SDS011;15134;48.768;9.184;2023-08-12T01:43:06;1081.57;;;978.30;;
27740;SDS011;15134;48.768;9.184;2023-08-12T01:45:34;1076.28;;;973.17;;
27740;SDS011;15134;48.768;9.184;2023-08-12T01:48:00;1072.65;;;969.67;;
27740;SDS011;15134;48.768;9.184;2023-08-12T01:50:27;1079.43;;;976.33;;
27740;SDS011;15134;48.768;9.184;2023-08-12T01:52:52;1072.22;;;969.30;;
27740;SDS011;15134;48.768;9.184;2023-08-12T01:55:18;1078.63;;;975.45;;
27740;SDS011;15134;48.768;9.184;2023-08-12T01:57:48;1078.22;;;974.88;;
27740;SDS011;15134;48.768;9.184;2023-08-12T02:00:20;1083.90;;;980.63;;
27740;SDS011;15134;48.768;9.184;2023-08-12T02:02:46;1071.13;;;968.25;;
27740;SDS011;15134;48.768;9.184;2023-08-12T02:05:12;1073.45;;;970.70;;
27740;SDS011;15134;48.768;9.184;2023-08-12T02:07:39;1078.82;;;975.70;;
27740;SDS011;15134;48.768;9.184;2023-08-12T02:10:06;1073.70;;;970.97;;
27740;SDS011;15134;48.768;9.184;2023-08-12T02:12:32;1072.78;;;969.88;;
27740;SDS011;15134;48.768;9.184;2023-08-12T02:14:57;1068.32;;;965.83;;
27740;SDS011;15134;48.768;9.184;2023-08-12T02:17:23;1079.50;;;976.27;;
27740;SDS011;15134;48.768;9.184;2023-08-12T02:19:50;1075.90;;;972.83;;
27740;SDS011;15134;48.768;9.184;2023-08-12T02:22:16;1073.07;;;970.20;;
27740;SDS011;15134;48.768;9.184;2023-08-12T02:24:42;1073.85;;;970.85;;
27740;SDS011;15134;48.768;9.184;2023-08-12T02:27:08;1077.37;;;974.23;;
27740;SDS011;15134;48.768;9.184;2023-08-12T02:29:34;1073.78;;;971.10;;
27740;SDS011;15134;48.768;9.184;2023-08-12T02:31:59;1073.93;;;971.10;;
27740;SDS011;15134;48.768;9.184;2023-08-12T02:34:25;1073.47;;;970.63;;
27740;SDS011;15134;48.768;9.184;2023-08-12T02:36:51;1074.07;;;971.30;;
27740;SDS011;15134;48.768;9.184;2023-08-12T02:39:16;1075.28;;;972.45;;
27740;SDS011;15134;48.768;9.184;2023-08-12T02:41:42;1075.75;;;972.67;;
27740;SDS011;15134;48.768;9.184;2023-08-12T02:44:08;1074.70;;;971.87;;
27740;SDS011;15134;48.768;9.184;2023-08-12T02:46:34;1070.38;;;967.78;;
27740;SDS011;15134;48.768;9.184;2023-08-12T02:49:02;1076.53;;;973.73;;
27740;SDS011;15134;48.768;9.184;2023-08-12T02:51:28;1071.20;;;968.70;;
27740;SDS011;15134;48.768;9.184;2023-08-12T02:53:55;1073.47;;;970.65;;
27740;SDS011;15134;48.768;9.184;2023-08-12T02:56:21;1077.37;;;974.43;;
27740;SDS011;15134;48.768;9.184;2023-08-12T02:58:46;1073.50;;;970.88;;
27740;SDS011;15134;48.768;9.184;2023-08-12T03:01:12;1078.45;;;975.55;;
27740;SDS011;15134;48.768;9.184;2023-08-12T03:03:38;1077.90;;;974.80;;
27740;SDS011;15134;48.768;9.184;2023-08-12T03:06:04;1076.82;;;974.20;;
27740;SDS011;15134;48.768;9.184;2023-08-12T03:08:30;1073.50;;;970.63;;
27740;SDS011;15134;48.768;9.184;2023-08-12T03:11:00;1076.63;;;973.97;;
27740;SDS011;15134;48.768;9.184;2023-08-12T03:13:27;1074.82;;;972.22;;
27740;SDS011;15134;48.768;9.184;2023-08-12T03:15:54;1073.60;;;970.90;;
27740;SDS011;15134;48.768;9.184;2023-08-12T03:18:20;1071.50;;;968.92;;
27740;SDS011;15134;48.768;9.184;2023-08-12T03:20:46;1072.13;;;969.55;;
27740;SDS011;15134;48.768;9.184;2023-08-12T03:23:13;1077.83;;;975.03;;
27740;SDS011;15134;48.768;9.184;2023-08-12T03:25:39;1081.50;;;978.40;;
27740;SDS011;15134;48.768;9.184;2023-08-12T03:28:05;1076.85;;;973.95;;
27740;SDS011;15134;48.768;9.184;2023-08-12T03:30:31;1071.88;;;969.20;;
27740;SDS011;15134;48.768;9.184;2023-08-12T03:32:57;1073.10;;;970.20;;
27740;SDS011;15134;48.768;9.184;2023-08-12T03:35:26;1075.85;;;972.88;;
27740;SDS011;15134;48.768;9.184;2023-08-12T03:37:52;1075.77;;;972.97;;
27740;SDS011;15134;48.768;9.184;2023-08-12T03:40:19;1073.30;;;970.30;;
27740;SDS011;15134;48.768;9.184;2023-08-12T03:42:47;1076.25;;;973.47;;
27740;SDS011;15134;48.768;9.184;2023-08-12T03:45:15;1076.68;;;973.67;;
27740;SDS011;15134;48.768;9.184;2023-08-12T03:47:40;1077.33;;;974.47;;
27740;SDS011;15134;48.768;9.184;2023-08-12T03:50:06;1079.82;;;976.72;;
27740;SDS011;15134;48.768;9.184;2023-08-12T03:52:32;1078.82;;;975.72;;
27740;SDS011;15134;48.768;9.184;2023-08-12T03:54:58;1071.00;;;968.40;;
27740;SDS011;15134;48.768;9.184;2023-08-12T03:57:25;1076.05;;;973.20;;
27740;SDS011;15134;48.768;9.184;2023-08-12T03:59:51;1073.57;;;970.97;;
27740;SDS011;15134;48.768;9.184;2023-08-12T04:02:16;1080.27;;;977.17;;
27740;SDS011;15134;48.768;9.184;2023-08-12T04:04:43;1075.85;;;973.05;;
27740;SDS011;15134;48.768;9.184;2023-08-12T04:07:10;1069.68;;;967.10;;
27740;SDS011;15134;48.768;9.184;2023-08-12T04:09:36;1075.90;;;973.03;;
27740;SDS011;15134;48.768;9.184;2023-08-12T04:12:02;1066.25;;;963.83;;
27740;SDS011;15134;48.768;9.184;2023-08-12T04:14:30;1070.10;;;967.63;;
27740;SDS011;15134;48.768;9.184;2023-08-12T04:16:56;1080.43;;;977.42;;
27740;SDS011;15134;48.768;9.184;2023-08-12T04:19:22;1072.55;;;969.78;;
27740;SDS011;15134;48.768;9.184;2023-08-12T04:21:48;1073.87;;;971.07;;
27740;SDS011;15134;48.768;9.184;2023-08-12T04:24:13;1072.25;;;969.67;;
27740;SDS011;15134;48.768;9.184;2023-08-12T04:26:39;1065.97;;;963.67;;
27740;SDS011;15134;48.768;9.184;2023-08-12T04:29:05;1071.47;;;968.85;;
27740;SDS011;15134;48.768;9.184;2023-08-12T04:31:34;1072.90;;;970.20;;
27740;SDS011;15134;48.768;9.184;2023-08-12T04:34:01;1081.68;;;978.47;;
27740;SDS011;15134;48.768;9.184;2023-08-12T04:36:27;1075.07;;;972.33;;
27740;SDS011;15134;48.768;9.184;2023-08-12T04:38:54;1072.37;;;969.87;;
27740;SDS011;15134;48.768;9.184;2023-08-12T04:41:20;1077.35;;;974.58;;
27740;SDS011;15134;48.768;9.184;2023-08-12T04:43:49;1077.32;;;974.25;;
27740;SDS011;15134;48.768;9.184;2023-08-12T04:46:15;1074.35;;;971.53;;
27740;SDS011;15134;48.768;9.184;2023-08-12T04:48:41;1074.53;;;971.90;;
27740;SDS011;15134;48.768;9.184;2023-08-12T04:51:07;1073.28;;;970.80;;
27740;SDS011;15134;48.768;9.184;2023-08-12T04:53:33;1073.40;;;970.80;;
27740;SDS011;15134;48.768;9.184;2023-08-12T04:55:59;1074.65;;;972.05;;
27740;SDS011;15134;48.768;9.184;2023-08-12T04:58:26;1073.33;;;970.67;;
27740;SDS011;15134;48.768;9.184;2023-08-12T05:00:51;1073.07;;;970.35;;
27740;SDS011;15134;48.768;9.184;2023-08-12T05:03:19;1077.27;;;974.60;;
27740;SDS011;15134;48.768;9.184;2023-08-12T05:05:49;1076.85;;;973.88;;
27740;SDS011;15134;48.768;9.184;2023-08-12T05:08:16;1074.72;;;972.00;;
27740;SDS011;15134;48.768;9.184;2023-08-12T05:10:42;1081.35;;;978.35;;
27740;SDS011;15134;48.768;9.184;2023-08-12T05:13:08;1079.07;;;976.17;;
27740;SDS011;15134;48.768;9.184;2023-08-12T05:15:34;1078.45;;;975.65;;
27740;SDS011;15134;48.768;9.184;2023-08-12T05:18:02;1084.88;;;981.78;;
27740;SDS011;15134;48.768;9.184;2023-08-12T05:20:29;1081.85;;;978.85;;
27740;SDS011;15134;48.768;9.184;2023-08-12T05:22:56;1071.30;;;969.00;;
27740;SDS011;15134;48.768;9.184;2023-08-12T05:25:22;1071.20;;;968.90;;
27740;SDS011;15134;48.768;9.184;2023-08-12T05:27:47;1072.53;;;970.10;;
27740;SDS011;15134;48.768;9.184;2023-08-12T05:30:13;1077.90;;;975.27;;
27740;SDS011;15134;48.768;9.184;2023-08-12T05:32:39;1071.47;;;969.05;;
27740;SDS011;15134;48.768;9.184;2023-08-12T05:35:04;1087.07;;;983.70;;
27740;SDS011;15134;48.768;9.184;2023-08-12T05:37:30;1085.30;;;982.05;;
27740;SDS011;15134;48.768;9.184;2023-08-12T05:39:56;1082.03;;;979.08;;
27740;SDS011;15134;48.768;9.184;2023-08-12T05:42:22;1084.30;;;981.00;;
27740;SDS011;15134;48.768;9.184;2023-08-12T05:44:47;1088.95;;;985.58;;
27740;SDS011;15134;48.768;9.184;2023-08-12T05:47:13;1085.10;;;981.67;;
27740;SDS011;15134;48.768;9.184;2023-08-12T05:49:41;1083.30;;;980.03;;
27740;SDS011;15134;48.768;9.184;2023-08-12T05:52:08;1088.20;;;984.95;;
27740;SDS011;15134;48.768;9.184;2023-08-12T05:54:36;1083.05;;;980.13;;
27740;SDS011;15134;48.768;9.184;2023-08-12T05:57:02;1085.72;;;982.38;;
27740;SDS011;15134;48.768;9.184;2023-08-12T05:59:28;1081.15;;;978.25;;
27740;SDS011;15134;48.768;9.184;2023-08-12T06:01:54;1086.73;;;983.53;;
27740;SDS011;15134;48.768;9.184;2023-08-12T06:04:21;1089.53;;;986.17;;
27740;SDS011;15134;48.768;9.184;2023-08-12T06:06:49;1089.57;;;986.17;;
27740;SDS011;15134;48.768;9.184;2023-08-12T06:09:14;1086.50;;;983.22;;
27740;SDS011;15134;48.768;9.184;2023-08-12T06:11:40;1092.20;;;988.63;;
27740;SDS011;15134;48.768;9.184;2023-08-12T06:14:06;1088.22;;;984.70;;
27740;SDS011;15134;48.768;9.184;2023-08-12T06:16:31;1082.43;;;979.37;;
27740;SDS011;15134;48.768;9.184;2023-08-12T06:18:57;1086.32;;;983.33;;
27740;SDS011;15134;48.768;9.184;2023-08-12T06:21:23;1094.00;;;990.47;;
27740;SDS011;15134;48.768;9.184;2023-08-12T06:23:49;1081.88;;;978.95;;
27740;SDS011;15134;48.768;9.184;2023-08-12T06:26:14;1086.27;;;982.97;;
27740;SDS011;15134;48.768;9.184;2023-08-12T06:28:40;1086.00;;;982.80;;
27740;SDS011;15134;48.768;9.184;2023-08-12T06:31:06;1088.77;;;985.40;;
27740;SDS011;15134;48.768;9.184;2023-08-12T06:33:34;1088.90;;;985.53;;
27740;SDS011;15134;48.768;9.184;2023-08-12T06:35:59;1089.20;;;985.63;;
27740;SDS011;15134;48.768;9.184;2023-08-12T06:38:25;1088.57;;;985.28;;
27740;SDS011;15134;48.768;9.184;2023-08-12T06:40:52;1092.80;;;989.27;;
27740;SDS011;15134;48.768;9.184;2023-08-12T06:43:21;1105.10;;;999.90;;
27740;SDS011;15134;48.768;9.184;2023-08-12T06:45:46;1105.32;;;999.90;;
27740;SDS011;15134;48.768;9.184;2023-08-12T06:48:12;1112.05;;;999.90;;
27740;SDS011;15134;48.768;9.184;2023-08-12T06:50:38;1116.25;;;999.90;;
27740;SDS011;15134;48.768;9.184;2023-08-12T06:53:05;1129.68;;;999.90;;
27740;SDS011;15134;48.768;9.184;2023-08-12T06:55:34;1151.47;;;999.90;;
27740;SDS011;15134;48.768;9.184;2023-08-12T06:58:00;1178.68;;;999.90;;
27740;SDS011;15134;48.768;9.184;2023-08-12T07:00:26;1203.03;;;999.90;;
27740;SDS011;15134;48.768;9.184;2023-08-12T07:02:52;1223.25;;;999.90;;
27740;SDS011;15134;48.768;9.184;2023-08-12T07:05:17;1226.13;;;999.90;;
27740;SDS011;15134;48.768;9.184;2023-08-12T07:07:43;1218.90;;;999.90;;
27740;SDS011;15134;48.768;9.184;2023-08-12T07:10:09;1218.13;;;999.90;;
27740;SDS011;15134;48.768;9.184;2023-08-12T07:12:35;1219.90;;;999.90;;
27740;SDS011;15134;48.768;9.184;2023-08-12T07:15:07;1238.28;;;999.90;;
27740;SDS011;15134;48.768;9.184;2023-08-12T07:17:33;1259.57;;;999.90;;
27740;SDS011;15134;48.768;9.184;2023-08-12T07:19:59;1281.68;;;999.90;;
27740;SDS011;15134;48.768;9.184;2023-08-12T07:22:24;1290.65;;;999.90;;
27740;SDS011;15134;48.768;9.184;2023-08-12T07:24:50;1293.43;;;999.90;;
27740;SDS011;15134;48.768;9.184;2023-08-12T07:27:20;1289.97;;;999.90;;
27740;SDS011;15134;48.768;9.184;2023-08-12T07:29:46;1298.05;;;999.90;;
27740;SDS011;15134;48.768;9.184;2023-08-12T07:32:12;1310.72;;;999.90;;
27740;SDS011;15134;48.768;9.184;2023-08-12T07:34:38;1324.60;;;999.90;;
27740;SDS011;15134;48.768;9.184;2023-08-12T07:37:03;1330.60;;;999.90;;
27740;SDS011;15134;48.768;9.184;2023-08-12T07:39:32;1334.28;;;999.90;;
27740;SDS011;15134;48.768;9.184;2023-08-12T07:41:58;1343.28;;;999.90;;
27740;SDS011;15134;48.768;9.184;2023-08-12T07:44:24;1347.32;;;999.90;;
27740;SDS011;15134;48.768;9.184;2023-08-12T07:46:50;1349.85;;;999.90;;
27740;SDS011;15134;48.768;9.184;2023-08-12T07:49:16;1352.95;;;999.90;;
27740;SDS011;15134;48.768;9.184;2023-08-12T07:51:42;1351.03;;;999.90;;
27740;SDS011;15134;48.768;9.184;2023-08-12T07:54:07;1355.43;;;999.90;;
27740;SDS011;15134;48.768;9.184;2023-08-12T07:56:33;1343.13;;;999.90;;
27740;SDS011;15134;48.768;9.184;2023-08-12T07:58:59;1355.50;;;999.90;;
27740;SDS011;15134;48.768;9.184;2023-08-12T08:01:24;1355.50;;;999.90;;
27740;SDS011;15134;48.768;9.184;2023-08-12T08:03:53;1368.50;;;999.90;;
27740;SDS011;15134;48.768;9.184;2023-08-12T08:06:22;1375.55;;;999.90;;
27740;SDS011;15134;48.768;9.184;2023-08-12T08:08:51;1376.53;;;999.90;;
27740;SDS011;15134;48.768;9.184;2023-08-12T08:11:17;1381.72;;;999.90;;
27740;SDS011;15134;48.768;9.184;2023-08-12T08:13:42;1379.27;;;999.90;;
27740;SDS011;15134;48.768;9.184;2023-08-12T08:16:08;1378.28;;;999.90;;
27740;SDS011;15134;48.768;9.184;2023-08-12T08:18:34;1379.87;;;999.90;;
27740;SDS011;15134;48.768;9.184;2023-08-12T08:20:59;1379.32;;;999.90;;
27740;SDS011;15134;48.768;9.184;2023-08-12T08:23:25;1376.30;;;999.90;;
27740;SDS011;15134;48.768;9.184;2023-08-12T08:25:51;1376.80;;;999.90;;
27740;SDS011;15134;48.768;9.184;2023-08-12T08:28:16;1372.97;;;999.90;;
27740;SDS011;15134;48.768;9.184;2023-08-12T08:30:42;1369.03;;;999.90;;
27740;SDS011;15134;48.768;9.184;2023-08-12T08:33:08;1371.03;;;999.90;;
27740;SDS011;15134;48.768;9.184;2023-08-12T08:35:34;1367.97;;;999.90;;
27740;SDS011;15134;48.768;9.184;2023-08-12T08:38:00;1366.43;;;999.90;;
27740;SDS011;15134;48.768;9.184;2023-08-12T08:40:26;1366.03;;;999.90;;
27740;SDS011;15134;48.768;9.184;2023-08-12T08:42:52;1372.85;;;999.90;;
27740;SDS011;15134;48.768;9.184;2023-08-12T08:45:21;1367.35;;;999.90;;
27740;SDS011;15134;48.768;9.184;2023-08-12T08:47:49;1368.22;;;999.90;;
27740;SDS011;15134;48.768;9.184;2023-08-12T08:50:16;1373.78;;;999.90;;
27740;SDS011;15134;48.768;9.184;2023-08-12T08:52:43;1365.82;;;999.90;;
27740;SDS011;15134;48.768;9.184;2023-08-12T08:55:09;1364.55;;;999.90;;
27740;SDS011;15134;48.768;9.184;2023-08-12T08:57:37;1361.75;;;999.90;;
27740;SDS011;15134;48.768;9.184;2023-08-12T09:00:03;1351.70;;;999.90;;
27740;SDS011;15134;48.768;9.184;2023-08-12T09:02:34;1351.63;;;999.90;;
27740;SDS011;15134;48.768;9.184;2023-08-12T09:05:02;1350.50;;;999.90;;
27740;SDS011;15134;48.768;9.184;2023-08-12T09:07:29;1358.68;;;999.90;;
27740;SDS011;15134;48.768;9.184;2023-08-12T09:09:57;1380.35;;;999.90;;
27740;SDS011;15134;48.768;9.184;2023-08-12T09:12:23;1375.55;;;999.90;;
27740;SDS011;15134;48.768;9.184;2023-08-12T09:14:49;1375.10;;;999.90;;
27740;SDS011;15134;48.768;9.184;2023-08-12T09:17:15;1377.15;;;999.90;;
27740;SDS011;15134;48.768;9.184;2023-08-12T09:19:41;1376.20;;;999.90;;
27740;SDS011;15134;48.768;9.184;2023-08-12T09:22:07;1378.28;;;999.90;;
27740;SDS011;15134;48.768;9.184;2023-08-12T09:24:34;1369.85;;;999.90;;
27740;SDS011;15134;48.768;9.184;2023-08-12T09:27:01;1375.65;;;999.90;;
27740;SDS011;15134;48.768;9.184;2023-08-12T09:29:33;1375.00;;;999.90;;
27740;SDS011;15134;48.768;9.184;2023-08-12T09:32:09;1380.75;;;999.90;;
27740;SDS011;15134;48.768;9.184;2023-08-12T09:34:52;1380.57;;;999.90;;
27740;SDS011;15134;48.768;9.184;2023-08-12T09:37:19;1362.05;;;999.90;;
27740;SDS011;15134;48.768;9.184;2023-08-12T09:39:50;1376.70;;;999.90;;
27740;SDS011;15134;48.768;9.184;2023-08-12T09:42:17;1376.20;;;999.90;;
27740;SDS011;15134;48.768;9.184;2023-08-12T09:44:44;1375.95;;;999.90;;
27740;SDS011;15134;48.768;9.184;2023-08-12T09:47:10;1374.80;;;999.90;;
27740;SDS011;15134;48.768;9.184;2023-08-12T09:49:36;1380.57;;;999.90;;
27740;SDS011;15134;48.768;9.184;2023-08-12T09:52:03;1378.50;;;999.90;;
27740;SDS011;15134;48.768;9.184;2023-08-12T09:54:33;1374.75;;;999.90;;
27740;SDS011;15134;48.768;9.184;2023-08-12T09:57:00;1373.82;;;999.90;;
27740;SDS011;15134;48.768;9.184;2023-08-12T09:59:30;1367.03;;;999.90;;
27740;SDS011;15134;48.768;9.184;2023-08-12T10:02:00;1349.03;;;999.90;;
27740;SDS011;15134;48.768;9.184;2023-08-12T10:04:39;1343.15;;;999.90;;
27740;SDS011;15134;48.768;9.184;2023-08-12T10:07:11;1330.65;;;999.90;;
27740;SDS011;15134;48.768;9.184;2023-08-12T10:09:38;1319.35;;;999.90;;
27740;SDS011;15134;48.768;9.184;2023-08-12T10:12:05;1314.75;;;999.90;;
27740;SDS011;15134;48.768;9.184;2023-08-12T10:14:34;1306.00;;;999.90;;
27740;SDS011;15134;48.768;9.184;2023-08-12T10:17:00;1295.85;;;999.90;;
27740;SDS011;15134;48.768;9.184;2023-08-12T10:19:26;1292.38;;;999.90;;
27740;SDS011;15134;48.768;9.184;2023-08-12T10:21:54;1289.15;;;999.90;;
27740;SDS011;15134;48.768;9.184;2023-08-12T10:24:22;1283.72;;;999.90;;
27740;SDS011;15134;48.768;9.184;2023-08-12T10:26:49;1279.43;;;999.90;;
27740;SDS011;15134;48.768;9.184;2023-08-12T10:29:17;1278.43;;;999.90;;
27740;SDS011;15134;48.768;9.184;2023-08-12T10:31:42;1271.17;;;999.90;;
27740;SDS011;15134;48.768;9.184;2023-08-12T10:34:17;1273.05;;;999.90;;
27740;SDS011;15134;48.768;9.184;2023-08-12T10:36:47;1267.88;;;999.90;;
27740;SDS011;15134;48.768;9.184;2023-08-12T10:39:18;1265.18;;;999.90;;
27740;SDS011;15134;48.768;9.184;2023-08-12T10:41:50;1271.90;;;999.90;;
27740;SDS011;15134;48.768;9.184;2023-08-12T10:44:17;1262.13;;;999.90;;
27740;SDS011;15134;48.768;9.184;2023-08-12T10:46:50;1256.47;;;999.90;;
27740;SDS011;15134;48.768;9.184;2023-08-12T10:49:18;1265.80;;;999.90;;
27740;SDS011;15134;48.768;9.184;2023-08-12T10:51:46;1263.43;;;999.90;;
27740;SDS011;15134;48.768;9.184;2023-08-12T11:05:03;1249.40;;;999.90;;
27740;SDS011;15134;48.768;9.184;2023-08-12T11:07:33;1252.30;;;999.90;;
27740;SDS011;15134;48.768;9.184;2023-08-12T11:10:18;1254.53;;;999.90;;
27740;SDS011;15134;48.768;9.184;2023-08-12T11:18:13;1246.33;;;999.90;;
27740;SDS011;15134;48.768;9.184;2023-08-12T11:20:49;1245.50;;;999.90;;
27740;SDS011;15134;48.768;9.184;2023-08-12T11:23:14;1248.90;;;999.90;;
27740;SDS011;15134;48.768;9.184;2023-08-12T11:25:42;1251.38;;;999.90;;
27740;SDS011;15134;48.768;9.184;2023-08-12T11:28:09;1252.13;;;999.90;;
27740;SDS011;15134;48.768;9.184;2023-08-12T11:30:35;1242.82;;;999.90;;
27740;SDS011;15134;48.768;9.184;2023-08-12T11:33:01;1245.27;;;999.90;;
27740;SDS011;15134;48.768;9.184;2023-08-12T11:35:28;1240.70;;;999.90;;
27740;SDS011;15134;48.768;9.184;2023-08-12T11:37:55;1239.47;;;999.90;;
27740;SDS011;15134;48.768;9.184;2023-08-12T11:40:21;1243.85;;;999.90;;
27740;SDS011;15134;48.768;9.184;2023-08-12T11:42:52;1239.30;;;999.90;;
27740;SDS011;15134;48.768;9.184;2023-08-12T11:45:25;1238.05;;;999.90;;
27740;SDS011;15134;48.768;9.184;2023-08-12T11:47:52;1238.28;;;999.90;;
27740;SDS011;15134;48.768;9.184;2023-08-12T11:50:19;1238.43;;;999.90;;
27740;SDS011;15134;48.768;9.184;2023-08-12T11:52:48;1234.90;;;999.90;;
27740;SDS011;15134;48.768;9.184;2023-08-12T11:55:14;1235.40;;;999.90;;
27740;SDS011;15134;48.768;9.184;2023-08-12T11:57:40;1232.32;;;999.90;;
27740;SDS011;15134;48.768;9.184;2023-08-12T12:00:07;1234.67;;;999.90;;
27740;SDS011;15134;48.768;9.184;2023-08-12T12:02:46;1236.10;;;999.90;;
27740;SDS011;15134;48.768;9.184;2023-08-12T12:05:12;1233.20;;;999.90;;
27740;SDS011;15134;48.768;9.184;2023-08-12T12:07:39;1235.95;;;999.90;;
27740;SDS011;15134;48.768;9.184;2023-08-12T12:10:06;1223.90;;;999.90;;
27740;SDS011;15134;48.768;9.184;2023-08-12T12:12:35;1217.75;;;999.90;;
27740;SDS011;15134;48.768;9.184;2023-08-12T12:15:02;1218.73;;;999.90;;
27740;SDS011;15134;48.768;9.184;2023-08-12T12:17:28;1209.30;;;999.90;;
27740;SDS011;15134;48.768;9.184;2023-08-12T12:19:55;1205.28;;;999.90;;
27740;SDS011;15134;48.768;9.184;2023-08-12T12:22:29;1199.05;;;999.90;;
27740;SDS011;15134;48.768;9.184;2023-08-12T12:24:59;1193.57;;;999.90;;
27740;SDS011;15134;48.768;9.184;2023-08-12T12:27:36;1191.13;;;999.90;;
27740;SDS011;15134;48.768;9.184;2023-08-12T12:30:04;1182.55;;;999.90;;
27740;SDS011;15134;48.768;9.184;2023-08-12T12:32:42;1176.20;;;999.90;;
27740;SDS011;15134;48.768;9.184;2023-08-12T12:35:10;1174.25;;;999.90;;
27740;SDS011;15134;48.768;9.184;2023-08-12T12:37:36;1170.10;;;999.90;;
27740;SDS011;15134;48.768;9.184;2023-08-12T12:40:03;1173.07;;;999.90;;
27740;SDS011;15134;48.768;9.184;2023-08-12T12:42:30;1165.97;;;999.90;;
27740;SDS011;15134;48.768;9.184;2023-08-12T12:44:56;1169.90;;;999.90;;
27740;SDS011;15134;48.768;9.184;2023-08-12T12:47:22;1168.70;;;999.90;;
27740;SDS011;15134;48.768;9.184;2023-08-12T12:49:54;1170.25;;;999.90;;
27740;SDS011;15134;48.768;9.184;2023-08-12T12:52:19;1160.32;;;999.90;;
27740;SDS011;15134;48.768;9.184;2023-08-12T12:54:45;1167.97;;;999.90;;
27740;SDS011;15134;48.768;9.184;2023-08-12T12:57:11;1163.80;;;999.90;;
27740;SDS011;15134;48.768;9.184;2023-08-12T12:59:36;1164.90;;;999.90;;
27740;SDS011;15134;48.768;9.184;2023-08-12T13:02:02;1152.23;;;999.90;;
27740;SDS011;15134;48.768;9.184;2023-08-12T13:04:28;1159.70;;;999.90;;
27740;SDS011;15134;48.768;9.184;2023-08-12T13:06:54;1158.40;;;999.90;;
27740;SDS011;15134;48.768;9.184;2023-08-12T13:09:20;1157.78;;;999.90;;
27740;SDS011;15134;48.768;9.184;2023-08-12T13:11:46;1152.03;;;999.90;;
27740;SDS011;15134;48.768;9.184;2023-08-12T13:14:11;1152.28;;;999.90;;
27740;SDS011;15134;48.768;9.184;2023-08-12T13:16:37;1159.23;;;999.90;;
27740;SDS011;15134;48.768;9.184;2023-08-12T13:19:03;1154.53;;;999.90;;
27740;SDS011;15134;48.768;9.184;2023-08-12T13:21:29;1156.70;;;999.90;;
27740;SDS011;15134;48.768;9.184;2023-08-12T13:23:54;1160.75;;;999.90;;
27740;SDS011;15134;48.768;9.184;2023-08-12T13:26:23;1153.72;;;999.90;;
27740;SDS011;15134;48.768;9.184;2023-08-12T13:28:49;1155.17;;;999.90;;
27740;SDS011;15134;48.768;9.184;2023-08-12T13:31:14;1154.93;;;999.90;;
27740;SDS011;15134;48.768;9.184;2023-08-12T13:33:41;1150.30;;;999.90;;
27740;SDS011;15134;48.768;9.184;2023-08-12T13:36:07;1152.75;;;999.90;;
27740;SDS011;15134;48.768;9.184;2023-08-12T13:38:33;1146.67;;;999.90;;
27740;SDS011;15134;48.768;9.184;2023-08-12T13:40:58;1145.28;;;999.90;;
27740;SDS011;15134;48.768;9.184;2023-08-12T13:43:24;1140.57;;;999.90;;
27740;SDS011;15134;48.768;9.184;2023-08-12T13:45:56;1143.63;;;999.90;;
27740;SDS011;15134;48.768;9.184;2023-08-12T13:48:22;1143.20;;;999.90;;
27740;SDS011;15134;48.768;9.184;2023-08-12T13:50:47;1143.23;;;999.90;;
27740;SDS011;15134;48.768;9.184;2023-08-12T13:53:15;1145.88;;;999.90;;
27740;SDS011;15134;48.768;9.184;2023-08-12T13:55:41;1148.07;;;999.90;;
27740;SDS011;15134;48.768;9.184;2023-08-12T13:58:07;1148.70;;;999.90;;
27740;SDS011;15134;48.768;9.184;2023-08-12T14:00:32;1152.70;;;999.90;;
27740;SDS011;15134;48.768;9.184;2023-08-12T14:02:58;1154.75;;;999.90;;
27740;SDS011;15134;48.768;9.184;2023-08-12T14:05:24;1157.95;;;999.90;;